sensor_id;sensor_type;location;lat;lon;timestamp;P1;durP1;ratioP1;P2;durP2;ratioP2
7845;SDS011;3968;51.424;6.788;2023-03-14T00:00:14;7.70;;;4.50;;
7845;SDS011;3968;51.424;6.788;2023-03-14T00:02:40;8.17;;;4.30;;
7845;SDS011;3968;51.424;6.788;2023-03-14T00:05:07;8.43;;;3.30;;
7845;SDS011;3968;51.424;6.788;2023-03-14T00:07:34;8.70;;;4.80;;
7845;SDS011;3968;51.424;6.788;2023-03-14T00:10:02;12.03;;;6.47;;
7845;SDS011;3968;51.424;6.788;2023-03-14T00:12:29;14.37;;;7.37;;
7845;SDS011;3968;51.424;6.788;2023-03-14T00:14:55;6.40;;;3.13;;
7845;SDS011;3968;51.424;6.788;2023-03-14T00:17:21;6.97;;;2.83;;
7845;SDS011;3968;51.424;6.788;2023-03-14T00:19:47;5.87;;;2.60;;
7845;SDS011;3968;51.424;6.788;2023-03-14T00:22:17;9.07;;;3.77;;
7845;SDS011;3968;51.424;6.788;2023-03-14T00:24:43;5.70;;;2.73;;
7845;SDS011;3968;51.424;6.788;2023-03-14T00:27:09;10.07;;;4.87;;
7845;SDS011;3968;51.424;6.788;2023-03-14T00:29:35;11.13;;;5.53;;
7845;SDS011;3968;51.424;6.788;2023-03-14T00:32:01;9.97;;;4.30;;
7845;SDS011;3968;51.424;6.788;2023-03-14T00:34:30;8.03;;;3.03;;
7845;SDS011;3968;51.424;6.788;2023-03-14T00:36:56;9.03;;;3.03;;
7845;SDS011;3968;51.424;6.788;2023-03-14T00:39:22;16.83;;;7.63;;
7845;SDS011;3968;51.424;6.788;2023-03-14T00:41:49;9.47;;;5.20;;
7845;SDS011;3968;51.424;6.788;2023-03-14T00:44:15;12.43;;;5.03;;
7845;SDS011;3968;51.424;6.788;2023-03-14T00:46:40;11.83;;;5.73;;
7845;SDS011;3968;51.424;6.788;2023-03-14T00:49:06;6.93;;;2.83;;
7845;SDS011;3968;51.424;6.788;2023-03-14T00:51:32;6.97;;;4.37;;
7845;SDS011;3968;51.424;6.788;2023-03-14T00:53:59;7.83;;;2.90;;
7845;SDS011;3968;51.424;6.788;2023-03-14T00:56:25;6.20;;;2.63;;
7845;SDS011;3968;51.424;6.788;2023-03-14T00:58:54;11.37;;;5.37;;
7845;SDS011;3968;51.424;6.788;2023-03-14T01:01:20;6.27;;;2.90;;
7845;SDS011;3968;51.424;6.788;2023-03-14T01:03:46;21.35;;;11.25;;
7845;SDS011;3968;51.424;6.788;2023-03-14T01:06:14;2.70;;;1.70;;
7845;SDS011;3968;51.424;6.788;2023-03-14T01:08:40;7.67;;;3.90;;
7845;SDS011;3968;51.424;6.788;2023-03-14T01:11:10;4.57;;;2.40;;
7845;SDS011;3968;51.424;6.788;2023-03-14T01:13:37;5.20;;;2.57;;
7845;SDS011;3968;51.424;6.788;2023-03-14T01:16:03;5.77;;;2.67;;
7845;SDS011;3968;51.424;6.788;2023-03-14T01:18:31;7.73;;;3.10;;
7845;SDS011;3968;51.424;6.788;2023-03-14T01:20:58;7.67;;;2.40;;
7845;SDS011;3968;51.424;6.788;2023-03-14T01:23:24;13.00;;;6.77;;
7845;SDS011;3968;51.424;6.788;2023-03-14T01:25:50;9.17;;;3.47;;
7845;SDS011;3968;51.424;6.788;2023-03-14T01:28:16;7.53;;;3.47;;
7845;SDS011;3968;51.424;6.788;2023-03-14T01:30:42;8.67;;;4.20;;
7845;SDS011;3968;51.424;6.788;2023-03-14T01:33:08;6.23;;;3.30;;
7845;SDS011;3968;51.424;6.788;2023-03-14T01:35:34;8.43;;;2.70;;
7845;SDS011;3968;51.424;6.788;2023-03-14T01:38:00;4.40;;;2.37;;
7845;SDS011;3968;51.424;6.788;2023-03-14T01:40:26;10.60;;;4.83;;
7845;SDS011;3968;51.424;6.788;2023-03-14T01:42:56;8.70;;;3.27;;
7845;SDS011;3968;51.424;6.788;2023-03-14T01:48:07;4.53;;;2.27;;
7845;SDS011;3968;51.424;6.788;2023-03-14T01:50:33;4.10;;;1.87;;
7845;SDS011;3968;51.424;6.788;2023-03-14T01:52:59;4.33;;;2.27;;
7845;SDS011;3968;51.424;6.788;2023-03-14T01:55:25;6.70;;;2.57;;
7845;SDS011;3968;51.424;6.788;2023-03-14T01:57:52;8.93;;;3.90;;
7845;SDS011;3968;51.424;6.788;2023-03-14T02:00:20;4.83;;;2.37;;
7845;SDS011;3968;51.424;6.788;2023-03-14T02:02:47;10.60;;;4.30;;
7845;SDS011;3968;51.424;6.788;2023-03-14T02:05:16;7.83;;;2.30;;
7845;SDS011;3968;51.424;6.788;2023-03-14T02:10:09;7.43;;;2.23;;
7845;SDS011;3968;51.424;6.788;2023-03-14T02:12:35;5.93;;;2.20;;
7845;SDS011;3968;51.424;6.788;2023-03-14T02:15:02;4.10;;;2.20;;
7845;SDS011;3968;51.424;6.788;2023-03-14T02:17:28;7.83;;;2.50;;
7845;SDS011;3968;51.424;6.788;2023-03-14T02:22:20;5.07;;;2.08;;
7845;SDS011;3968;51.424;6.788;2023-03-14T02:24:49;7.47;;;4.37;;
7845;SDS011;3968;51.424;6.788;2023-03-14T02:27:18;5.77;;;2.33;;
7845;SDS011;3968;51.424;6.788;2023-03-14T02:29:49;5.03;;;1.90;;
7845;SDS011;3968;51.424;6.788;2023-03-14T02:32:15;8.43;;;3.50;;
7845;SDS011;3968;51.424;6.788;2023-03-14T02:34:42;9.00;;;3.17;;
7845;SDS011;3968;51.424;6.788;2023-03-14T02:37:09;8.07;;;3.00;;
7845;SDS011;3968;51.424;6.788;2023-03-14T02:39:36;4.47;;;1.73;;
7845;SDS011;3968;51.424;6.788;2023-03-14T02:42:03;9.40;;;2.70;;
7845;SDS011;3968;51.424;6.788;2023-03-14T02:44:29;6.37;;;2.50;;
7845;SDS011;3968;51.424;6.788;2023-03-14T02:46:55;8.93;;;3.90;;
7845;SDS011;3968;51.424;6.788;2023-03-14T02:49:21;5.73;;;2.20;;
7845;SDS011;3968;51.424;6.788;2023-03-14T02:51:48;4.73;;;2.17;;
7845;SDS011;3968;51.424;6.788;2023-03-14T02:54:14;6.27;;;2.73;;
7845;SDS011;3968;51.424;6.788;2023-03-14T02:56:41;7.60;;;2.90;;
7845;SDS011;3968;51.424;6.788;2023-03-14T02:59:07;6.30;;;2.77;;
7845;SDS011;3968;51.424;6.788;2023-03-14T03:01:33;5.27;;;2.10;;
7845;SDS011;3968;51.424;6.788;2023-03-14T03:03:59;7.73;;;2.73;;
7845;SDS011;3968;51.424;6.788;2023-03-14T03:06:25;7.17;;;2.53;;
7845;SDS011;3968;51.424;6.788;2023-03-14T03:08:51;6.70;;;2.47;;
7845;SDS011;3968;51.424;6.788;2023-03-14T03:11:17;5.50;;;2.10;;
7845;SDS011;3968;51.424;6.788;2023-03-14T03:13:43;5.97;;;2.23;;
7845;SDS011;3968;51.424;6.788;2023-03-14T03:16:09;5.83;;;2.30;;
7845;SDS011;3968;51.424;6.788;2023-03-14T03:18:38;8.27;;;3.30;;
7845;SDS011;3968;51.424;6.788;2023-03-14T03:21:04;7.37;;;2.67;;
7845;SDS011;3968;51.424;6.788;2023-03-14T03:23:30;7.03;;;2.07;;
7845;SDS011;3968;51.424;6.788;2023-03-14T03:25:56;7.50;;;2.90;;
7845;SDS011;3968;51.424;6.788;2023-03-14T03:28:22;5.67;;;2.23;;
7845;SDS011;3968;51.424;6.788;2023-03-14T03:30:48;11.63;;;2.87;;
7845;SDS011;3968;51.424;6.788;2023-03-14T03:33:14;5.40;;;2.40;;
7845;SDS011;3968;51.424;6.788;2023-03-14T03:35:47;7.10;;;3.70;;
7845;SDS011;3968;51.424;6.788;2023-03-14T03:38:14;6.10;;;2.57;;
7845;SDS011;3968;51.424;6.788;2023-03-14T03:40:40;5.97;;;2.27;;
7845;SDS011;3968;51.424;6.788;2023-03-14T03:43:06;5.77;;;2.03;;
7845;SDS011;3968;51.424;6.788;2023-03-14T03:45:32;6.63;;;2.17;;
7845;SDS011;3968;51.424;6.788;2023-03-14T03:47:58;9.07;;;3.20;;
7845;SDS011;3968;51.424;6.788;2023-03-14T03:50:24;5.37;;;1.80;;
7845;SDS011;3968;51.424;6.788;2023-03-14T03:52:50;5.23;;;2.20;;
7845;SDS011;3968;51.424;6.788;2023-03-14T03:55:16;7.63;;;3.10;;
7845;SDS011;3968;51.424;6.788;2023-03-14T03:57:42;8.30;;;2.73;;
7845;SDS011;3968;51.424;6.788;2023-03-14T04:00:09;6.90;;;2.23;;
7845;SDS011;3968;51.424;6.788;2023-03-14T04:02:36;8.90;;;2.80;;
7845;SDS011;3968;51.424;6.788;2023-03-14T04:05:02;6.20;;;2.27;;
7845;SDS011;3968;51.424;6.788;2023-03-14T04:07:31;4.23;;;2.00;;
7845;SDS011;3968;51.424;6.788;2023-03-14T04:09:57;6.83;;;2.60;;
7845;SDS011;3968;51.424;6.788;2023-03-14T04:12:23;9.87;;;4.20;;
7845;SDS011;3968;51.424;6.788;2023-03-14T04:14:49;10.60;;;3.73;;
7845;SDS011;3968;51.424;6.788;2023-03-14T04:17:15;6.00;;;2.80;;
7845;SDS011;3968;51.424;6.788;2023-03-14T04:19:41;10.40;;;3.00;;
7845;SDS011;3968;51.424;6.788;2023-03-14T04:22:07;6.57;;;2.37;;
7845;SDS011;3968;51.424;6.788;2023-03-14T04:24:33;7.53;;;3.63;;
7845;SDS011;3968;51.424;6.788;2023-03-14T04:26:59;8.23;;;3.40;;
7845;SDS011;3968;51.424;6.788;2023-03-14T04:29:25;7.77;;;3.27;;
7845;SDS011;3968;51.424;6.788;2023-03-14T04:31:51;4.40;;;2.20;;
7845;SDS011;3968;51.424;6.788;2023-03-14T04:34:17;6.27;;;2.07;;
7845;SDS011;3968;51.424;6.788;2023-03-14T04:36:43;5.07;;;2.23;;
7845;SDS011;3968;51.424;6.788;2023-03-14T04:39:09;6.97;;;2.30;;
7845;SDS011;3968;51.424;6.788;2023-03-14T04:41:35;8.17;;;2.50;;
7845;SDS011;3968;51.424;6.788;2023-03-14T04:44:01;9.30;;;2.93;;
7845;SDS011;3968;51.424;6.788;2023-03-14T04:46:27;6.93;;;2.73;;
7845;SDS011;3968;51.424;6.788;2023-03-14T04:48:53;7.43;;;3.60;;
7845;SDS011;3968;51.424;6.788;2023-03-14T04:51:21;6.70;;;3.23;;
7845;SDS011;3968;51.424;6.788;2023-03-14T04:53:48;3.87;;;2.17;;
7845;SDS011;3968;51.424;6.788;2023-03-14T04:56:14;2.53;;;1.67;;
7845;SDS011;3968;51.424;6.788;2023-03-14T04:58:40;2.00;;;1.47;;
7845;SDS011;3968;51.424;6.788;2023-03-14T05:01:06;3.63;;;1.70;;
7845;SDS011;3968;51.424;6.788;2023-03-14T05:03:32;4.27;;;1.60;;
7845;SDS011;3968;51.424;6.788;2023-03-14T05:06:00;4.47;;;1.60;;
7845;SDS011;3968;51.424;6.788;2023-03-14T05:08:27;2.80;;;1.40;;
7845;SDS011;3968;51.424;6.788;2023-03-14T05:10:53;3.57;;;1.80;;
7845;SDS011;3968;51.424;6.788;2023-03-14T05:13:19;5.73;;;1.80;;
7845;SDS011;3968;51.424;6.788;2023-03-14T05:15:45;9.40;;;2.20;;
7845;SDS011;3968;51.424;6.788;2023-03-14T05:18:11;3.57;;;2.10;;
7845;SDS011;3968;51.424;6.788;2023-03-14T05:20:37;4.93;;;2.23;;
7845;SDS011;3968;51.424;6.788;2023-03-14T05:23:03;4.30;;;2.50;;
7845;SDS011;3968;51.424;6.788;2023-03-14T05:25:29;3.97;;;2.20;;
7845;SDS011;3968;51.424;6.788;2023-03-14T05:27:55;4.77;;;2.53;;
7845;SDS011;3968;51.424;6.788;2023-03-14T05:30:21;4.27;;;2.00;;
7845;SDS011;3968;51.424;6.788;2023-03-14T05:32:47;3.90;;;2.63;;
7845;SDS011;3968;51.424;6.788;2023-03-14T05:35:13;5.07;;;3.00;;
7845;SDS011;3968;51.424;6.788;2023-03-14T05:37:39;4.20;;;3.23;;
7845;SDS011;3968;51.424;6.788;2023-03-14T05:40:06;7.30;;;2.83;;
7845;SDS011;3968;51.424;6.788;2023-03-14T05:42:33;3.87;;;2.07;;
7845;SDS011;3968;51.424;6.788;2023-03-14T05:44:59;2.30;;;1.70;;
7845;SDS011;3968;51.424;6.788;2023-03-14T05:47:25;3.33;;;1.70;;
7845;SDS011;3968;51.424;6.788;2023-03-14T05:49:54;3.03;;;1.40;;
7845;SDS011;3968;51.424;6.788;2023-03-14T05:52:20;1.40;;;1.30;;
7845;SDS011;3968;51.424;6.788;2023-03-14T05:54:47;2.00;;;1.23;;
7845;SDS011;3968;51.424;6.788;2023-03-14T05:57:13;1.80;;;1.27;;
7845;SDS011;3968;51.424;6.788;2023-03-14T05:59:39;3.03;;;1.20;;
7845;SDS011;3968;51.424;6.788;2023-03-14T06:02:05;1.70;;;1.20;;
7845;SDS011;3968;51.424;6.788;2023-03-14T06:04:31;3.47;;;1.57;;
7845;SDS011;3968;51.424;6.788;2023-03-14T06:06:57;4.13;;;1.60;;
7845;SDS011;3968;51.424;6.788;2023-03-14T06:09:23;4.10;;;1.73;;
7845;SDS011;3968;51.424;6.788;2023-03-14T06:11:49;2.43;;;1.47;;
7845;SDS011;3968;51.424;6.788;2023-03-14T06:14:15;3.60;;;1.87;;
7845;SDS011;3968;51.424;6.788;2023-03-14T06:16:41;5.03;;;1.77;;
7845;SDS011;3968;51.424;6.788;2023-03-14T06:19:07;2.63;;;1.20;;
7845;SDS011;3968;51.424;6.788;2023-03-14T06:21:33;3.10;;;1.37;;
7845;SDS011;3968;51.424;6.788;2023-03-14T06:23:59;2.53;;;1.40;;
7845;SDS011;3968;51.424;6.788;2023-03-14T06:26:25;2.73;;;2.00;;
7845;SDS011;3968;51.424;6.788;2023-03-14T06:28:51;3.53;;;1.70;;
7845;SDS011;3968;51.424;6.788;2023-03-14T06:31:18;7.47;;;1.90;;
7845;SDS011;3968;51.424;6.788;2023-03-14T06:33:44;3.00;;;1.80;;
7845;SDS011;3968;51.424;6.788;2023-03-14T06:36:10;3.03;;;2.10;;
7845;SDS011;3968;51.424;6.788;2023-03-14T06:38:36;3.90;;;1.90;;
7845;SDS011;3968;51.424;6.788;2023-03-14T06:41:03;5.23;;;2.70;;
7845;SDS011;3968;51.424;6.788;2023-03-14T06:43:29;2.50;;;1.70;;
7845;SDS011;3968;51.424;6.788;2023-03-14T06:45:55;5.60;;;2.70;;
7845;SDS011;3968;51.424;6.788;2023-03-14T06:48:21;6.23;;;3.00;;
7845;SDS011;3968;51.424;6.788;2023-03-14T06:50:48;4.23;;;2.60;;
7845;SDS011;3968;51.424;6.788;2023-03-14T06:53:14;4.93;;;2.70;;
7845;SDS011;3968;51.424;6.788;2023-03-14T06:55:40;4.23;;;2.70;;
7845;SDS011;3968;51.424;6.788;2023-03-14T06:58:06;3.10;;;1.73;;
7845;SDS011;3968;51.424;6.788;2023-03-14T07:00:33;3.27;;;2.27;;
7845;SDS011;3968;51.424;6.788;2023-03-14T07:02:59;4.07;;;2.10;;
7845;SDS011;3968;51.424;6.788;2023-03-14T07:05:25;3.97;;;2.30;;
7845;SDS011;3968;51.424;6.788;2023-03-14T07:07:51;4.07;;;2.80;;
7845;SDS011;3968;51.424;6.788;2023-03-14T07:10:17;3.13;;;2.20;;
7845;SDS011;3968;51.424;6.788;2023-03-14T07:12:43;2.43;;;1.20;;
7845;SDS011;3968;51.424;6.788;2023-03-14T07:15:09;2.17;;;1.27;;
7845;SDS011;3968;51.424;6.788;2023-03-14T07:17:35;2.13;;;1.43;;
7845;SDS011;3968;51.424;6.788;2023-03-14T07:20:01;2.23;;;1.50;;
7845;SDS011;3968;51.424;6.788;2023-03-14T07:22:29;2.50;;;2.07;;
7845;SDS011;3968;51.424;6.788;2023-03-14T07:24:55;5.73;;;3.83;;
7845;SDS011;3968;51.424;6.788;2023-03-14T07:27:21;4.43;;;2.67;;
7845;SDS011;3968;51.424;6.788;2023-03-14T07:29:47;4.07;;;2.57;;
7845;SDS011;3968;51.424;6.788;2023-03-14T07:32:13;4.73;;;2.80;;
7845;SDS011;3968;51.424;6.788;2023-03-14T07:34:42;7.03;;;3.80;;
7845;SDS011;3968;51.424;6.788;2023-03-14T07:37:09;6.27;;;4.23;;
7845;SDS011;3968;51.424;6.788;2023-03-14T07:39:35;5.93;;;4.20;;
7845;SDS011;3968;51.424;6.788;2023-03-14T07:42:01;4.57;;;3.67;;
7845;SDS011;3968;51.424;6.788;2023-03-14T07:44:27;3.70;;;3.27;;
7845;SDS011;3968;51.424;6.788;2023-03-14T07:46:53;3.90;;;3.20;;
7845;SDS011;3968;51.424;6.788;2023-03-14T07:49:19;5.20;;;3.13;;
7845;SDS011;3968;51.424;6.788;2023-03-14T07:51:48;4.63;;;3.50;;
7845;SDS011;3968;51.424;6.788;2023-03-14T07:54:15;7.03;;;3.30;;
7845;SDS011;3968;51.424;6.788;2023-03-14T07:56:41;3.50;;;3.20;;
7845;SDS011;3968;51.424;6.788;2023-03-14T07:59:08;5.33;;;3.83;;
7845;SDS011;3968;51.424;6.788;2023-03-14T08:01:34;7.30;;;5.10;;
7845;SDS011;3968;51.424;6.788;2023-03-14T08:04:00;11.17;;;6.83;;
7845;SDS011;3968;51.424;6.788;2023-03-14T08:06:26;7.93;;;5.80;;
7845;SDS011;3968;51.424;6.788;2023-03-14T08:08:52;7.30;;;5.13;;
7845;SDS011;3968;51.424;6.788;2023-03-14T08:11:18;72.60;;;52.63;;
7845;SDS011;3968;51.424;6.788;2023-03-14T08:13:44;155.73;;;96.47;;
7845;SDS011;3968;51.424;6.788;2023-03-14T08:16:18;137.57;;;84.37;;
7845;SDS011;3968;51.424;6.788;2023-03-14T08:18:44;6.87;;;5.37;;
7845;SDS011;3968;51.424;6.788;2023-03-14T08:21:10;2.77;;;2.10;;
7845;SDS011;3968;51.424;6.788;2023-03-14T08:23:36;1.60;;;1.50;;
7845;SDS011;3968;51.424;6.788;2023-03-14T08:26:02;1.80;;;1.70;;
7845;SDS011;3968;51.424;6.788;2023-03-14T08:28:28;4.37;;;2.87;;
7845;SDS011;3968;51.424;6.788;2023-03-14T08:30:57;2.50;;;2.30;;
7845;SDS011;3968;51.424;6.788;2023-03-14T08:33:23;3.27;;;2.60;;
7845;SDS011;3968;51.424;6.788;2023-03-14T08:35:53;2.97;;;2.43;;
7845;SDS011;3968;51.424;6.788;2023-03-14T08:38:19;2.60;;;2.40;;
7845;SDS011;3968;51.424;6.788;2023-03-14T08:40:45;4.47;;;3.70;;
7845;SDS011;3968;51.424;6.788;2023-03-14T08:43:11;2.50;;;2.30;;
7845;SDS011;3968;51.424;6.788;2023-03-14T08:45:37;2.50;;;2.17;;
7845;SDS011;3968;51.424;6.788;2023-03-14T08:48:03;1.55;;;1.45;;
7845;SDS011;3968;51.424;6.788;2023-03-14T08:50:29;1.60;;;1.50;;
7845;SDS011;3968;51.424;6.788;2023-03-14T08:52:55;3.43;;;2.20;;
7845;SDS011;3968;51.424;6.788;2023-03-14T08:55:24;2.77;;;1.70;;
7845;SDS011;3968;51.424;6.788;2023-03-14T08:57:52;3.90;;;2.20;;
7845;SDS011;3968;51.424;6.788;2023-03-14T09:00:18;2.60;;;2.20;;
7845;SDS011;3968;51.424;6.788;2023-03-14T09:02:44;2.43;;;1.70;;
7845;SDS011;3968;51.424;6.788;2023-03-14T09:05:10;2.77;;;1.67;;
7845;SDS011;3968;51.424;6.788;2023-03-14T09:07:37;1.60;;;1.50;;
7845;SDS011;3968;51.424;6.788;2023-03-14T09:10:03;3.20;;;1.60;;
7845;SDS011;3968;51.424;6.788;2023-03-14T09:12:29;2.60;;;1.40;;
7845;SDS011;3968;51.424;6.788;2023-03-14T09:14:55;2.77;;;1.30;;
7845;SDS011;3968;51.424;6.788;2023-03-14T09:17:21;3.10;;;1.50;;
7845;SDS011;3968;51.424;6.788;2023-03-14T09:19:47;1.13;;;0.93;;
7845;SDS011;3968;51.424;6.788;2023-03-14T09:22:13;1.27;;;1.00;;
7845;SDS011;3968;51.424;6.788;2023-03-14T09:24:40;1.53;;;1.00;;
7845;SDS011;3968;51.424;6.788;2023-03-14T09:27:06;1.17;;;1.07;;
7845;SDS011;3968;51.424;6.788;2023-03-14T09:29:33;1.97;;;1.00;;
7845;SDS011;3968;51.424;6.788;2023-03-14T09:31:59;1.80;;;1.20;;
7845;SDS011;3968;51.424;6.788;2023-03-14T09:34:25;2.10;;;1.23;;
7845;SDS011;3968;51.424;6.788;2023-03-14T09:36:51;1.57;;;1.13;;
7845;SDS011;3968;51.424;6.788;2023-03-14T09:39:17;1.93;;;1.07;;
7845;SDS011;3968;51.424;6.788;2023-03-14T09:41:44;1.37;;;1.27;;
7845;SDS011;3968;51.424;6.788;2023-03-14T09:46:38;3.13;;;1.80;;
7845;SDS011;3968;51.424;6.788;2023-03-14T09:49:11;4.33;;;1.80;;
7845;SDS011;3968;51.424;6.788;2023-03-14T09:51:37;2.30;;;1.73;;
7845;SDS011;3968;51.424;6.788;2023-03-14T09:54:04;3.30;;;1.73;;
7845;SDS011;3968;51.424;6.788;2023-03-14T09:56:31;3.53;;;2.10;;
7845;SDS011;3968;51.424;6.788;2023-03-14T09:58:58;3.23;;;2.37;;
7845;SDS011;3968;51.424;6.788;2023-03-14T10:01:26;5.00;;;2.33;;
7845;SDS011;3968;51.424;6.788;2023-03-14T10:03:57;3.33;;;2.17;;
7845;SDS011;3968;51.424;6.788;2023-03-14T10:06:24;2.83;;;2.23;;
7845;SDS011;3968;51.424;6.788;2023-03-14T10:08:51;3.00;;;2.00;;
7845;SDS011;3968;51.424;6.788;2023-03-14T10:11:18;2.93;;;2.10;;
7845;SDS011;3968;51.424;6.788;2023-03-14T10:13:48;2.03;;;1.73;;
7845;SDS011;3968;51.424;6.788;2023-03-14T10:16:14;2.27;;;1.33;;
7845;SDS011;3968;51.424;6.788;2023-03-14T10:18:43;1.87;;;1.47;;
7845;SDS011;3968;51.424;6.788;2023-03-14T10:21:26;2.03;;;1.83;;
7845;SDS011;3968;51.424;6.788;2023-03-14T10:23:53;2.00;;;1.80;;
7845;SDS011;3968;51.424;6.788;2023-03-14T10:26:28;4.00;;;1.80;;
7845;SDS011;3968;51.424;6.788;2023-03-14T10:29:11;4.47;;;1.60;;
7845;SDS011;3968;51.424;6.788;2023-03-14T10:31:48;3.77;;;2.13;;
7845;SDS011;3968;51.424;6.788;2023-03-14T10:34:16;3.67;;;1.63;;
7845;SDS011;3968;51.424;6.788;2023-03-14T10:36:43;4.80;;;1.60;;
7845;SDS011;3968;51.424;6.788;2023-03-14T10:41:52;4.40;;;1.80;;
7845;SDS011;3968;51.424;6.788;2023-03-14T10:44:20;5.83;;;2.30;;
7845;SDS011;3968;51.424;6.788;2023-03-14T10:46:46;2.80;;;1.70;;
7845;SDS011;3968;51.424;6.788;2023-03-14T10:49:27;6.80;;;2.70;;
7845;SDS011;3968;51.424;6.788;2023-03-14T10:51:54;7.03;;;2.40;;
7845;SDS011;3968;51.424;6.788;2023-03-14T10:54:20;6.73;;;1.60;;
7845;SDS011;3968;51.424;6.788;2023-03-14T10:56:55;4.60;;;2.03;;
7845;SDS011;3968;51.424;6.788;2023-03-14T10:59:22;2.23;;;1.70;;
7845;SDS011;3968;51.424;6.788;2023-03-14T11:01:58;3.60;;;1.90;;
7845;SDS011;3968;51.424;6.788;2023-03-14T11:09:41;5.10;;;1.67;;
7845;SDS011;3968;51.424;6.788;2023-03-14T11:12:26;4.03;;;1.63;;
7845;SDS011;3968;51.424;6.788;2023-03-14T11:15:01;3.20;;;2.10;;
7845;SDS011;3968;51.424;6.788;2023-03-14T11:17:30;3.27;;;1.70;;
7845;SDS011;3968;51.424;6.788;2023-03-14T11:22:46;6.00;;;2.43;;
7845;SDS011;3968;51.424;6.788;2023-03-14T11:30:42;9.10;;;3.57;;
7845;SDS011;3968;51.424;6.788;2023-03-14T11:35:39;4.47;;;2.30;;
7845;SDS011;3968;51.424;6.788;2023-03-14T11:38:25;6.97;;;2.10;;
7845;SDS011;3968;51.424;6.788;2023-03-14T11:40:54;5.53;;;1.93;;
7845;SDS011;3968;51.424;6.788;2023-03-14T11:43:38;4.60;;;2.07;;
7845;SDS011;3968;51.424;6.788;2023-03-14T11:46:09;2.43;;;1.30;;
7845;SDS011;3968;51.424;6.788;2023-03-14T11:48:38;4.30;;;1.63;;
7845;SDS011;3968;51.424;6.788;2023-03-14T11:51:07;3.57;;;1.67;;
7845;SDS011;3968;51.424;6.788;2023-03-14T11:53:45;2.43;;;1.83;;
7845;SDS011;3968;51.424;6.788;2023-03-14T11:56:25;4.20;;;2.10;;
7845;SDS011;3968;51.424;6.788;2023-03-14T11:58:57;5.83;;;1.90;;
7845;SDS011;3968;51.424;6.788;2023-03-14T12:01:27;4.10;;;2.30;;
7845;SDS011;3968;51.424;6.788;2023-03-14T12:08:54;6.57;;;2.70;;
7845;SDS011;3968;51.424;6.788;2023-03-14T12:12:24;3.70;;;2.13;;
7845;SDS011;3968;51.424;6.788;2023-03-14T12:14:25;4.87;;;2.33;;
7845;SDS011;3968;51.424;6.788;2023-03-14T12:16:53;8.40;;;2.40;;
7845;SDS011;3968;51.424;6.788;2023-03-14T12:21:49;8.00;;;3.27;;
7845;SDS011;3968;51.424;6.788;2023-03-14T12:24:20;11.23;;;4.93;;
7845;SDS011;3968;51.424;6.788;2023-03-14T12:26:52;11.33;;;3.60;;
7845;SDS011;3968;51.424;6.788;2023-03-14T12:29:19;8.00;;;3.20;;
7845;SDS011;3968;51.424;6.788;2023-03-14T12:31:46;11.97;;;3.37;;
7845;SDS011;3968;51.424;6.788;2023-03-14T12:39:33;6.90;;;2.10;;
7845;SDS011;3968;51.424;6.788;2023-03-14T12:42:09;6.07;;;2.00;;
7845;SDS011;3968;51.424;6.788;2023-03-14T12:44:40;9.70;;;2.90;;
7845;SDS011;3968;51.424;6.788;2023-03-14T12:49:45;9.83;;;3.30;;
7845;SDS011;3968;51.424;6.788;2023-03-14T13:00:20;10.27;;;2.97;;
7845;SDS011;3968;51.424;6.788;2023-03-14T13:02:47;15.40;;;3.27;;
7845;SDS011;3968;51.424;6.788;2023-03-14T13:05:24;13.17;;;3.83;;
7845;SDS011;3968;51.424;6.788;2023-03-14T13:10:23;10.70;;;3.57;;
7845;SDS011;3968;51.424;6.788;2023-03-14T13:17:45;16.87;;;3.83;;
7845;SDS011;3968;51.424;6.788;2023-03-14T13:20:16;18.27;;;3.80;;
7845;SDS011;3968;51.424;6.788;2023-03-14T13:22:47;12.83;;;3.50;;
7845;SDS011;3968;51.424;6.788;2023-03-14T13:25:14;12.77;;;3.67;;
7845;SDS011;3968;51.424;6.788;2023-03-14T13:27:41;12.47;;;3.87;;
7845;SDS011;3968;51.424;6.788;2023-03-14T13:30:15;16.73;;;4.33;;
7845;SDS011;3968;51.424;6.788;2023-03-14T13:32:42;21.93;;;4.97;;
7845;SDS011;3968;51.424;6.788;2023-03-14T13:37:44;14.13;;;3.40;;
7845;SDS011;3968;51.424;6.788;2023-03-14T13:43:11;17.10;;;4.00;;
7845;SDS011;3968;51.424;6.788;2023-03-14T13:45:41;12.10;;;3.53;;
7845;SDS011;3968;51.424;6.788;2023-03-14T13:48:08;14.00;;;3.17;;
7845;SDS011;3968;51.424;6.788;2023-03-14T13:50:35;16.23;;;4.00;;
7845;SDS011;3968;51.424;6.788;2023-03-14T13:53:02;14.40;;;3.37;;
7845;SDS011;3968;51.424;6.788;2023-03-14T13:55:28;11.33;;;3.30;;
7845;SDS011;3968;51.424;6.788;2023-03-14T13:57:55;15.57;;;3.33;;
7845;SDS011;3968;51.424;6.788;2023-03-14T14:00:27;15.23;;;4.07;;
7845;SDS011;3968;51.424;6.788;2023-03-14T14:02:55;16.60;;;5.03;;
7845;SDS011;3968;51.424;6.788;2023-03-14T14:05:22;17.83;;;4.07;;
7845;SDS011;3968;51.424;6.788;2023-03-14T14:07:48;17.70;;;3.70;;
7845;SDS011;3968;51.424;6.788;2023-03-14T14:10:16;14.87;;;3.53;;
7845;SDS011;3968;51.424;6.788;2023-03-14T14:12:45;13.87;;;3.60;;
7845;SDS011;3968;51.424;6.788;2023-03-14T14:17:49;18.43;;;3.87;;
7845;SDS011;3968;51.424;6.788;2023-03-14T14:20:20;11.07;;;3.33;;
7845;SDS011;3968;51.424;6.788;2023-03-14T14:22:47;8.73;;;2.60;;
7845;SDS011;3968;51.424;6.788;2023-03-14T14:25:13;10.13;;;2.63;;
7845;SDS011;3968;51.424;6.788;2023-03-14T14:27:41;11.63;;;2.80;;
7845;SDS011;3968;51.424;6.788;2023-03-14T14:32:42;15.10;;;7.00;;
7845;SDS011;3968;51.424;6.788;2023-03-14T14:37:53;10.07;;;2.37;;
7845;SDS011;3968;51.424;6.788;2023-03-14T14:40:21;7.63;;;2.23;;
7845;SDS011;3968;51.424;6.788;2023-03-14T14:42:47;10.83;;;2.50;;
7845;SDS011;3968;51.424;6.788;2023-03-14T14:45:16;7.03;;;1.90;;
7845;SDS011;3968;51.424;6.788;2023-03-14T14:47:57;11.90;;;2.53;;
7845;SDS011;3968;51.424;6.788;2023-03-14T14:50:31;10.93;;;2.40;;
7845;SDS011;3968;51.424;6.788;2023-03-14T14:53:02;8.40;;;2.30;;
7845;SDS011;3968;51.424;6.788;2023-03-14T14:55:32;8.87;;;2.53;;
7845;SDS011;3968;51.424;6.788;2023-03-14T14:57:59;6.73;;;2.20;;
7845;SDS011;3968;51.424;6.788;2023-03-14T15:00:39;10.83;;;2.90;;
7845;SDS011;3968;51.424;6.788;2023-03-14T15:03:05;10.90;;;2.50;;
7845;SDS011;3968;51.424;6.788;2023-03-14T15:05:31;7.10;;;2.30;;
7845;SDS011;3968;51.424;6.788;2023-03-14T15:08:00;8.67;;;2.13;;
7845;SDS011;3968;51.424;6.788;2023-03-14T15:10:26;11.17;;;2.90;;
7845;SDS011;3968;51.424;6.788;2023-03-14T15:12:53;14.33;;;3.00;;
7845;SDS011;3968;51.424;6.788;2023-03-14T15:15:19;10.17;;;2.90;;
7845;SDS011;3968;51.424;6.788;2023-03-14T15:17:45;9.07;;;2.60;;
7845;SDS011;3968;51.424;6.788;2023-03-14T15:20:13;8.07;;;2.17;;
7845;SDS011;3968;51.424;6.788;2023-03-14T15:22:39;9.90;;;2.43;;
7845;SDS011;3968;51.424;6.788;2023-03-14T15:25:05;8.77;;;2.70;;
7845;SDS011;3968;51.424;6.788;2023-03-14T15:27:32;9.73;;;2.50;;
7845;SDS011;3968;51.424;6.788;2023-03-14T15:29:58;12.23;;;2.63;;
7845;SDS011;3968;51.424;6.788;2023-03-14T15:32:25;7.40;;;2.70;;
7845;SDS011;3968;51.424;6.788;2023-03-14T15:34:52;7.10;;;2.00;;
7845;SDS011;3968;51.424;6.788;2023-03-14T15:37:18;4.57;;;1.67;;
7845;SDS011;3968;51.424;6.788;2023-03-14T15:39:44;6.90;;;1.80;;
7845;SDS011;3968;51.424;6.788;2023-03-14T15:42:10;6.77;;;2.27;;
7845;SDS011;3968;51.424;6.788;2023-03-14T15:44:37;6.07;;;1.97;;
7845;SDS011;3968;51.424;6.788;2023-03-14T15:47:04;6.57;;;2.07;;
7845;SDS011;3968;51.424;6.788;2023-03-14T15:49:31;6.83;;;2.07;;
7845;SDS011;3968;51.424;6.788;2023-03-14T15:51:57;5.77;;;2.30;;
7845;SDS011;3968;51.424;6.788;2023-03-14T15:54:24;8.63;;;2.47;;
7845;SDS011;3968;51.424;6.788;2023-03-14T15:56:53;7.47;;;2.13;;
7845;SDS011;3968;51.424;6.788;2023-03-14T15:59:19;9.13;;;2.23;;
7845;SDS011;3968;51.424;6.788;2023-03-14T16:01:45;6.67;;;2.27;;
7845;SDS011;3968;51.424;6.788;2023-03-14T16:04:13;5.00;;;2.07;;
7845;SDS011;3968;51.424;6.788;2023-03-14T16:06:39;6.43;;;2.47;;
7845;SDS011;3968;51.424;6.788;2023-03-14T16:09:06;5.23;;;2.03;;
7845;SDS011;3968;51.424;6.788;2023-03-14T16:11:32;7.63;;;2.50;;
7845;SDS011;3968;51.424;6.788;2023-03-14T16:13:58;9.40;;;2.13;;
7845;SDS011;3968;51.424;6.788;2023-03-14T16:16:24;7.67;;;2.20;;
7845;SDS011;3968;51.424;6.788;2023-03-14T16:18:50;7.50;;;2.37;;
7845;SDS011;3968;51.424;6.788;2023-03-14T16:21:17;7.03;;;2.50;;
7845;SDS011;3968;51.424;6.788;2023-03-14T16:23:44;8.20;;;2.20;;
7845;SDS011;3968;51.424;6.788;2023-03-14T16:26:11;7.37;;;2.70;;